sensor_id;sensor_type;location;lat;lon;timestamp;P1;durP1;ratioP1;P2;durP2;ratioP2
75914;SDS011;64593;51.050;13.780;2022-12-29T07:03:50;1.83;;;0.60;;
75914;SDS011;64593;51.050;13.780;2022-12-29T07:08:52;1.10;;;0.40;;
75914;SDS011;64593;51.050;13.780;2022-12-29T07:13:56;1.80;;;0.95;;
75914;SDS011;64593;51.050;13.780;2022-12-29T07:19:04;2.47;;;0.52;;
75914;SDS011;64593;51.050;13.780;2022-12-29T07:24:07;1.15;;;0.50;;
75914;SDS011;64593;51.050;13.780;2022-12-29T07:29:27;2.17;;;0.77;;
75914;SDS011;64593;51.050;13.780;2022-12-29T07:34:29;2.10;;;0.52;;
75914;SDS011;64593;51.050;13.780;2022-12-29T07:39:30;2.53;;;0.45;;
75914;SDS011;64593;51.050;13.780;2022-12-29T07:44:32;2.60;;;0.50;;
75914;SDS011;64593;51.050;13.780;2022-12-29T07:49:52;1.60;;;0.73;;
75914;SDS011;64593;51.050;13.780;2022-12-29T07:54:54;1.40;;;0.45;;
75914;SDS011;64593;51.050;13.780;2022-12-29T07:59:56;0.50;;;0.40;;
75914;SDS011;64593;51.050;13.780;2022-12-29T08:05:16;1.83;;;0.95;;
75914;SDS011;64593;51.050;13.780;2022-12-29T08:10:18;2.67;;;0.95;;
75914;SDS011;64593;51.050;13.780;2022-12-29T08:15:19;3.22;;;1.15;;
75914;SDS011;64593;51.050;13.780;2022-12-29T08:20:23;3.22;;;1.25;;
75914;SDS011;64593;51.050;13.780;2022-12-29T08:25:25;3.97;;;1.33;;
75914;SDS011;64593;51.050;13.780;2022-12-29T08:30:30;2.35;;;1.02;;
75914;SDS011;64593;51.050;13.780;2022-12-29T08:35:31;3.42;;;1.05;;
75914;SDS011;64593;51.050;13.780;2022-12-29T08:40:33;3.80;;;1.00;;
75914;SDS011;64593;51.050;13.780;2022-12-29T08:45:59;2.30;;;1.02;;
75914;SDS011;64593;51.050;13.780;2022-12-29T08:51:01;3.30;;;1.25;;
75914;SDS011;64593;51.050;13.780;2022-12-29T08:56:03;2.28;;;1.33;;
75914;SDS011;64593;51.050;13.780;2022-12-29T09:01:15;3.20;;;0.70;;
75914;SDS011;64593;51.050;13.780;2022-12-29T09:06:17;3.75;;;1.88;;
75914;SDS011;64593;51.050;13.780;2022-12-29T09:11:20;1.15;;;0.52;;
75914;SDS011;64593;51.050;13.780;2022-12-29T09:16:23;1.20;;;0.55;;
75914;SDS011;64593;51.050;13.780;2022-12-29T09:21:43;3.38;;;0.68;;
75914;SDS011;64593;51.050;13.780;2022-12-29T09:26:45;4.65;;;0.98;;
75914;SDS011;64593;51.050;13.780;2022-12-29T09:31:47;4.00;;;0.90;;
75914;SDS011;64593;51.050;13.780;2022-12-29T09:36:49;2.40;;;0.70;;
75914;SDS011;64593;51.050;13.780;2022-12-29T09:42:02;1.67;;;0.50;;
75914;SDS011;64593;51.050;13.780;2022-12-29T09:47:10;2.15;;;0.73;;
75914;SDS011;64593;51.050;13.780;2022-12-29T09:52:23;2.78;;;0.63;;
75914;SDS011;64593;51.050;13.780;2022-12-29T09:57:54;0.50;;;0.22;;
75914;SDS011;64593;51.050;13.780;2022-12-29T10:03:17;2.40;;;0.60;;
75914;SDS011;64593;51.050;13.780;2022-12-29T10:13:56;3.53;;;0.60;;
75914;SDS011;64593;51.050;13.780;2022-12-29T10:19:38;4.18;;;0.60;;
75914;SDS011;64593;51.050;13.780;2022-12-29T10:24:54;2.35;;;0.40;;
75914;SDS011;64593;51.050;13.780;2022-12-29T10:29:58;1.58;;;0.73;;
75914;SDS011;64593;51.050;13.780;2022-12-29T10:35:43;1.70;;;0.65;;
75914;SDS011;64593;51.050;13.780;2022-12-29T10:40:32;2.08;;;0.82;;
75914;SDS011;64593;51.050;13.780;2022-12-29T10:45:38;2.92;;;0.57;;
75914;SDS011;64593;51.050;13.780;2022-12-29T10:50:40;1.55;;;0.57;;
75914;SDS011;64593;51.050;13.780;2022-12-29T10:55:44;3.10;;;0.73;;
75914;SDS011;64593;51.050;13.780;2022-12-29T11:00:49;2.67;;;1.17;;
75914;SDS011;64593;51.050;13.780;2022-12-29T11:06:22;0.73;;;0.30;;
75914;SDS011;64593;51.050;13.780;2022-12-29T11:11:28;2.17;;;0.70;;
75914;SDS011;64593;51.050;13.780;2022-12-29T11:16:34;1.77;;;0.70;;
75914;SDS011;64593;51.050;13.780;2022-12-29T11:21:37;3.00;;;0.68;;
75914;SDS011;64593;51.050;13.780;2022-12-29T11:26:43;1.48;;;0.80;;
75914;SDS011;64593;51.050;13.780;2022-12-29T11:32:21;3.08;;;0.82;;
75914;SDS011;64593;51.050;13.780;2022-12-29T11:37:33;1.25;;;0.55;;
75914;SDS011;64593;51.050;13.780;2022-12-29T11:48:08;1.80;;;0.55;;
75914;SDS011;64593;51.050;13.780;2022-12-29T11:53:17;2.17;;;0.95;;
75914;SDS011;64593;51.050;13.780;2022-12-29T11:58:36;1.90;;;0.68;;
75914;SDS011;64593;51.050;13.780;2022-12-29T12:03:40;2.47;;;0.60;;
75914;SDS011;64593;51.050;13.780;2022-12-29T12:08:48;2.67;;;1.63;;
75914;SDS011;64593;51.050;13.780;2022-12-29T12:25:19;2.28;;;0.55;;
75914;SDS011;64593;51.050;13.780;2022-12-29T12:30:43;1.83;;;0.70;;
75914;SDS011;64593;51.050;13.780;2022-12-29T13:02:26;1.60;;;0.75;;
75914;SDS011;64593;51.050;13.780;2022-12-29T13:18:29;2.35;;;0.95;;
75914;SDS011;64593;51.050;13.780;2022-12-29T13:23:35;4.18;;;1.20;;
75914;SDS011;64593;51.050;13.780;2022-12-29T13:28:59;2.03;;;1.08;;
75914;SDS011;64593;51.050;13.780;2022-12-29T13:44:27;3.33;;;0.70;;
75914;SDS011;64593;51.050;13.780;2022-12-29T13:49:33;1.20;;;0.63;;
75914;SDS011;64593;51.050;13.780;2022-12-29T14:00:00;2.60;;;0.93;;
75914;SDS011;64593;51.050;13.780;2022-12-29T14:10:48;2.35;;;0.80;;
75914;SDS011;64593;51.050;13.780;2022-12-29T14:15:51;1.73;;;0.73;;
75914;SDS011;64593;51.050;13.780;2022-12-29T14:31:52;2.38;;;0.73;;
75914;SDS011;64593;51.050;13.780;2022-12-29T14:36:55;3.72;;;0.95;;
75914;SDS011;64593;51.050;13.780;2022-12-29T14:42:04;3.40;;;0.60;;
75914;SDS011;64593;51.050;13.780;2022-12-29T14:47:37;1.60;;;1.05;;
75914;SDS011;64593;51.050;13.780;2022-12-29T14:52:50;0.70;;;0.50;;
75914;SDS011;64593;51.050;13.780;2022-12-29T14:58:03;3.72;;;1.20;;
75914;SDS011;64593;51.050;13.780;2022-12-29T15:08:17;1.40;;;0.73;;
75914;SDS011;64593;51.050;13.780;2022-12-29T15:13:22;1.83;;;0.80;;
75914;SDS011;64593;51.050;13.780;2022-12-29T15:18:30;3.58;;;1.40;;
75914;SDS011;64593;51.050;13.780;2022-12-29T15:23:33;1.80;;;0.70;;
75914;SDS011;64593;51.050;13.780;2022-12-29T15:33:48;2.95;;;0.70;;
75914;SDS011;64593;51.050;13.780;2022-12-29T15:38:54;5.55;;;0.70;;
75914;SDS011;64593;51.050;13.780;2022-12-29T15:44:23;2.20;;;1.10;;
75914;SDS011;64593;51.050;13.780;2022-12-29T15:49:47;2.35;;;1.15;;
75914;SDS011;64593;51.050;13.780;2022-12-29T15:54:52;4.35;;;1.10;;
75914;SDS011;64593;51.050;13.780;2022-12-29T15:59:54;1.83;;;0.65;;
75914;SDS011;64593;51.050;13.780;2022-12-29T16:04:56;2.60;;;0.82;;
75914;SDS011;64593;51.050;13.780;2022-12-29T16:10:22;1.63;;;0.60;;
75914;SDS011;64593;51.050;13.780;2022-12-29T16:15:28;1.88;;;0.90;;
75914;SDS011;64593;51.050;13.780;2022-12-29T16:20:48;2.50;;;0.98;;
75914;SDS011;64593;51.050;13.780;2022-12-29T16:25:50;2.08;;;0.80;;
75914;SDS011;64593;51.050;13.780;2022-12-29T16:31:01;7.18;;;1.05;;
75914;SDS011;64593;51.050;13.780;2022-12-29T16:41:35;2.53;;;0.63;;
75914;SDS011;64593;51.050;13.780;2022-12-29T16:46:37;4.15;;;1.13;;
75914;SDS011;64593;51.050;13.780;2022-12-29T16:51:55;3.00;;;0.70;;
75914;SDS011;64593;51.050;13.780;2022-12-29T16:56:57;2.67;;;1.02;;
75914;SDS011;64593;51.050;13.780;2022-12-29T17:02:00;3.80;;;0.63;;
75914;SDS011;64593;51.050;13.780;2022-12-29T17:07:09;2.30;;;0.80;;
75914;SDS011;64593;51.050;13.780;2022-12-29T17:12:20;1.40;;;0.70;;
75914;SDS011;64593;51.050;13.780;2022-12-29T17:22:41;1.50;;;0.55;;
75914;SDS011;64593;51.050;13.780;2022-12-29T17:27:44;1.33;;;0.50;;
75914;SDS011;64593;51.050;13.780;2022-12-29T17:32:53;0.75;;;0.38;;
75914;SDS011;64593;51.050;13.780;2022-12-29T17:38:21;2.03;;;0.93;;
75914;SDS011;64593;51.050;13.780;2022-12-29T17:43:26;1.90;;;0.57;;
75914;SDS011;64593;51.050;13.780;2022-12-29T17:48:36;1.30;;;0.30;;
75914;SDS011;64593;51.050;13.780;2022-12-29T17:53:38;1.27;;;0.60;;
75914;SDS011;64593;51.050;13.780;2022-12-29T17:58:42;1.65;;;0.70;;
75914;SDS011;64593;51.050;13.780;2022-12-29T18:03:44;2.50;;;0.65;;
75914;SDS011;64593;51.050;13.780;2022-12-29T18:09:04;7.57;;;3.17;;
75914;SDS011;64593;51.050;13.780;2022-12-29T18:14:12;2.85;;;1.50;;
75914;SDS011;64593;51.050;13.780;2022-12-29T18:19:15;2.67;;;1.02;;
75914;SDS011;64593;51.050;13.780;2022-12-29T18:24:17;2.20;;;0.82;;
75914;SDS011;64593;51.050;13.780;2022-12-29T18:29:20;2.40;;;0.80;;
75914;SDS011;64593;51.050;13.780;2022-12-29T18:34:41;2.28;;;0.75;;
75914;SDS011;64593;51.050;13.780;2022-12-29T18:39:42;3.38;;;1.13;;
75914;SDS011;64593;51.050;13.780;2022-12-29T18:44:44;2.75;;;1.30;;
75914;SDS011;64593;51.050;13.780;2022-12-29T18:49:46;2.67;;;1.30;;
75914;SDS011;64593;51.050;13.780;2022-12-29T18:54:48;2.53;;;1.10;;
75914;SDS011;64593;51.050;13.780;2022-12-29T19:00:09;5.00;;;1.42;;
75914;SDS011;64593;51.050;13.780;2022-12-29T19:05:20;5.72;;;1.77;;
75914;SDS011;64593;51.050;13.780;2022-12-29T19:10:29;4.25;;;1.77;;
75914;SDS011;64593;51.050;13.780;2022-12-29T19:15:32;10.75;;;2.28;;
75914;SDS011;64593;51.050;13.780;2022-12-29T19:20:54;2.08;;;1.25;;
75914;SDS011;64593;51.050;13.780;2022-12-29T19:26:03;3.95;;;2.15;;
75914;SDS011;64593;51.050;13.780;2022-12-29T19:31:05;1.73;;;1.10;;
75914;SDS011;64593;51.050;13.780;2022-12-29T19:36:07;5.32;;;1.70;;
75914;SDS011;64593;51.050;13.780;2022-12-29T19:41:28;4.15;;;2.00;;
75914;SDS011;64593;51.050;13.780;2022-12-29T19:46:30;5.40;;;1.65;;
75914;SDS011;64593;51.050;13.780;2022-12-29T19:51:32;4.80;;;2.50;;
75914;SDS011;64593;51.050;13.780;2022-12-29T19:56:53;5.70;;;1.98;;
75914;SDS011;64593;51.050;13.780;2022-12-29T20:01:56;8.38;;;2.90;;
75914;SDS011;64593;51.050;13.780;2022-12-29T20:07:03;12.43;;;4.30;;
75914;SDS011;64593;51.050;13.780;2022-12-29T20:12:08;5.30;;;2.67;;
75914;SDS011;64593;51.050;13.780;2022-12-29T20:17:14;9.68;;;4.03;;
75914;SDS011;64593;51.050;13.780;2022-12-29T20:22:27;6.57;;;3.03;;
75914;SDS011;64593;51.050;13.780;2022-12-29T20:33:34;6.25;;;2.47;;
75914;SDS011;64593;51.050;13.780;2022-12-29T20:38:37;5.60;;;1.85;;
75914;SDS011;64593;51.050;13.780;2022-12-29T20:43:39;7.82;;;2.47;;
75914;SDS011;64593;51.050;13.780;2022-12-29T20:48:42;7.57;;;3.08;;
75914;SDS011;64593;51.050;13.780;2022-12-29T20:53:45;5.97;;;2.60;;
75914;SDS011;64593;51.050;13.780;2022-12-29T20:58:47;8.63;;;4.63;;
75914;SDS011;64593;51.050;13.780;2022-12-29T21:04:09;6.80;;;3.55;;
75914;SDS011;64593;51.050;13.780;2022-12-29T21:09:11;3.90;;;2.08;;
75914;SDS011;64593;51.050;13.780;2022-12-29T21:14:16;3.20;;;1.58;;
75914;SDS011;64593;51.050;13.780;2022-12-29T21:19:20;1.58;;;0.50;;
75914;SDS011;64593;51.050;13.780;2022-12-29T21:24:23;0.80;;;0.40;;
75914;SDS011;64593;51.050;13.780;2022-12-29T21:29:27;0.73;;;0.30;;
75914;SDS011;64593;51.050;13.780;2022-12-29T21:34:29;1.75;;;0.50;;
75914;SDS011;64593;51.050;13.780;2022-12-29T21:39:35;1.35;;;0.35;;
75914;SDS011;64593;51.050;13.780;2022-12-29T21:44:36;0.75;;;0.22;;
75914;SDS011;64593;51.050;13.780;2022-12-29T21:49:56;2.10;;;0.50;;
75914;SDS011;64593;51.050;13.780;2022-12-29T21:54:58;2.60;;;0.80;;
75914;SDS011;64593;51.050;13.780;2022-12-29T22:00:00;1.23;;;0.50;;
75914;SDS011;64593;51.050;13.780;2022-12-29T22:05:21;2.42;;;0.68;;
75914;SDS011;64593;51.050;13.780;2022-12-29T22:10:42;2.22;;;0.70;;
75914;SDS011;64593;51.050;13.780;2022-12-29T22:16:03;3.33;;;0.70;;
75914;SDS011;64593;51.050;13.780;2022-12-29T22:21:29;2.50;;;0.45;;
75914;SDS011;64593;51.050;13.780;2022-12-29T22:26:31;3.17;;;0.80;;
75914;SDS011;64593;51.050;13.780;2022-12-29T22:31:34;4.18;;;0.68;;
75914;SDS011;64593;51.050;13.780;2022-12-29T22:36:54;1.15;;;0.40;;
75914;SDS011;64593;51.050;13.780;2022-12-29T22:41:56;4.50;;;0.73;;
75914;SDS011;64593;51.050;13.780;2022-12-29T22:47:01;3.78;;;1.15;;
75914;SDS011;64593;51.050;13.780;2022-12-29T22:52:03;1.17;;;0.45;;
75914;SDS011;64593;51.050;13.780;2022-12-29T22:57:05;4.20;;;0.85;;
